Time;durP1;ratioP1;P1;durP2;ratioP2;P2;SDS_P1;SDS_P2;PMS_P1;PMS_P2;Temp;Humidity;BMP_temperature;BMP_pressure;BME280_temperature;BME280_humidity;BME280_pressure;Samples;Min_cycle;Max_cycle;Signal;HPM_P1;HPM_P2
2021/09/24 00:01:31;;;;;;;21.70;16.17;;;;;;;7.67;100.00;98382.86;1816394;78;20806;-61
2021/09/24 00:03:58;;;;;;;23.70;17.15;;;;;;;7.71;100.00;98381.78;1816162;78;20960;-61
2021/09/24 00:06:25;;;;;;;24.65;13.58;;;;;;;7.72;100.00;98384.74;1816300;79;20929;-60
2021/09/24 00:08:51;;;;;;;20.43;15.08;;;;;;;7.73;100.00;98376.45;1816512;78;21015;-61
2021/09/24 00:11:19;;;;;;;18.65;13.53;;;;;;;7.75;100.00;98368.18;1816418;78;21080;-59
2021/09/24 00:13:47;;;;;;;20.10;15.35;;;;;;;7.76;100.00;98370.31;1816245;78;20885;-60
2021/09/24 00:16:14;;;;;;;23.27;16.15;;;;;;;7.78;100.00;98371.66;1816346;79;20849;-60
2021/09/24 00:18:41;;;;;;;22.55;16.48;;;;;;;7.79;100.00;98368.44;1816549;79;20829;-60
2021/09/24 00:21:09;;;;;;;21.87;14.23;;;;;;;7.81;100.00;98369.78;1816646;79;20901;-58
2021/09/24 00:23:37;;;;;;;25.02;18.50;;;;;;;7.81;100.00;98358.30;1816216;78;20889;-60
2021/09/24 00:26:04;;;;;;;25.15;17.60;;;;;;;7.83;100.00;98352.95;1816147;79;20810;-59
2021/09/24 00:28:30;;;;;;;20.45;14.50;;;;;;;7.86;100.00;98356.97;1816210;79;20854;-59
2021/09/24 00:31:02;;;;;;;20.00;14.15;;;;;;;7.85;100.00;98349.50;1816336;78;20865;-61
2021/09/24 00:33:29;;;;;;;16.10;11.75;;;;;;;7.89;100.00;98335.88;1816355;79;20993;-59
2021/09/24 00:35:55;;;;;;;20.77;16.32;;;;;;;7.91;100.00;98328.41;1816188;78;21078;-59
2021/09/24 00:38:23;;;;;;;22.73;14.80;;;;;;;7.94;100.00;98329.75;1817371;78;20881;-60
2021/09/24 00:40:51;;;;;;;23.05;17.10;;;;;;;7.93;100.00;98312.09;1822241;78;20849;-60
2021/09/24 00:43:18;;;;;;;21.23;15.72;;;;;;;7.93;100.00;98323.58;1822555;78;20893;-60
2021/09/24 00:45:46;;;;;;;22.25;13.00;;;;;;;7.95;100.00;98321.45;1822648;78;20980;-60
2021/09/24 00:48:14;;;;;;;22.95;16.85;;;;;;;7.96;100.00;98320.91;1822496;78;20837;-60
2021/09/24 00:50:41;;;;;;;21.82;15.28;;;;;;;8.00;100.00;98321.19;1822085;78;20884;-59
2021/09/24 00:53:10;;;;;;;17.67;13.03;;;;;;;7.98;100.00;98307.29;1822294;78;20889;-59
2021/09/24 00:55:38;;;;;;;18.75;14.55;;;;;;;7.99;100.00;98298.22;1822403;78;21348;-59
2021/09/24 00:58:05;;;;;;;22.32;15.35;;;;;;;7.99;100.00;98288.88;1822806;78;20874;-59
2021/09/24 01:00:31;;;;;;;19.57;13.90;;;;;;;7.99;100.00;98281.66;1822420;78;21118;-59
2021/09/24 01:03:00;;;;;;;13.48;9.75;;;;;;;7.98;100.00;98285.37;1822079;78;20902;-60
2021/09/24 01:05:27;;;;;;;15.80;12.68;;;;;;;7.99;100.00;98268.29;1822228;78;20928;-60
2021/09/24 01:07:55;;;;;;;16.77;12.40;;;;;;;8.03;100.00;98260.52;1822105;78;20873;-59
2021/09/24 01:10:23;;;;;;;20.70;14.30;;;;;;;8.02;100.00;98252.25;1822376;78;20806;-60
2021/09/24 01:12:50;;;;;;;21.42;16.00;;;;;;;8.04;100.00;98267.48;1822439;78;21099;-60
2021/09/24 01:15:18;;;;;;;17.50;11.40;;;;;;;8.07;100.00;98256.25;1822168;78;20881;-59
2021/09/24 01:17:47;;;;;;;18.70;12.73;;;;;;;8.05;100.00;98240.48;1822672;78;20859;-60
2021/09/24 01:20:19;;;;;;;21.00;13.80;;;;;;;8.06;100.00;98236.75;1822322;78;20892;-60
2021/09/24 01:22:47;;;;;;;17.35;10.40;;;;;;;8.06;100.00;98232.75;1822591;78;21474;-61
2021/09/24 01:25:16;;;;;;;18.15;13.43;;;;;;;8.04;100.00;98231.41;1798008;78;21864;-59
2021/09/24 01:27:43;;;;;;;16.62;10.63;;;;;;;8.05;100.00;98214.30;1822189;78;20845;-59
2021/09/24 01:30:11;;;;;;;27.35;13.62;;;;;;;8.02;100.00;98210.30;1822119;78;20928;-60
2021/09/24 01:32:39;;;;;;;20.57;12.82;;;;;;;8.04;100.00;98218.84;1822092;78;20940;-60
2021/09/24 01:35:07;;;;;;;20.35;15.03;;;;;;;8.07;100.00;98208.16;1822371;78;20943;-60
2021/09/24 01:37:36;;;;;;;19.95;14.60;;;;;;;8.07;100.00;98206.28;1797487;78;21123;-60
2021/09/24 01:40:07;;;;;;;21.97;15.48;;;;;;;8.07;100.00;98206.81;1817486;78;20806;-60
2021/09/24 01:42:34;;;;;;;22.20;12.80;;;;;;;8.06;100.00;98203.86;1815344;79;20952;-60
2021/09/24 01:45:01;;;;;;;17.10;11.00;;;;;;;8.02;100.00;98163.53;1816067;79;20894;-59
2021/09/24 01:47:28;;;;;;;21.52;14.47;;;;;;;8.02;100.00;98177.44;1816495;79;20849;-59
2021/09/24 01:49:56;;;;;;;19.55;14.05;;;;;;;8.06;100.00;98183.31;1816502;78;21847;-60
2021/09/24 01:52:24;;;;;;;17.80;12.88;;;;;;;8.03;100.00;98163.78;1816512;78;20877;-60
2021/09/24 01:54:50;;;;;;;19.17;14.35;;;;;;;8.04;100.00;98159.27;1816072;79;20881;-59
2021/09/24 01:57:17;;;;;;;22.80;12.70;;;;;;;8.05;100.00;98158.18;1815950;79;20901;-60
2021/09/24 01:59:45;;;;;;;28.38;14.90;;;;;;;8.03;100.00;98150.97;1816182;79;20830;-60
2021/09/24 02:02:11;;;;;;;14.53;10.55;;;;;;;8.06;100.00;98153.09;1816541;78;21118;-60
2021/09/24 02:04:38;;;;;;;20.62;11.65;;;;;;;8.02;100.00;98128.00;1816188;78;20885;-61
2021/09/24 02:07:06;;;;;;;28.98;15.90;;;;;;;8.05;100.00;98143.48;1816299;79;20853;-61
2021/09/24 02:09:33;;;;;;;19.15;12.65;;;;;;;8.04;100.00;98121.86;1816434;79;20897;-62
2021/09/24 02:12:00;;;;;;;15.50;10.55;;;;;;;8.03;100.00;98121.03;1816152;78;20850;-61
2021/09/24 02:14:27;;;;;;;17.85;11.88;;;;;;;8.02;100.00;98115.44;1816258;79;21114;-61
2021/09/24 02:16:56;;;;;;;18.73;12.50;;;;;;;8.04;100.00;98113.84;1815892;78;20806;-62
2021/09/24 02:19:24;;;;;;;19.92;13.40;;;;;;;8.03;100.00;98121.57;1816499;78;20881;-61
2021/09/24 02:21:51;;;;;;;25.00;16.67;;;;;;;8.02;100.00;98123.99;1816518;79;20862;-60
2021/09/24 02:24:19;;;;;;;18.32;12.20;;;;;;;8.04;100.00;98120.52;1816334;78;20877;-61
2021/09/24 02:26:45;;;;;;;16.93;11.22;;;;;;;8.03;100.00;98126.92;1816520;78;21369;-60
2021/09/24 02:29:14;;;;;;;19.80;13.93;;;;;;;8.04;100.00;98099.14;1816354;78;27038;-61
2021/09/24 02:31:40;;;;;;;20.60;13.72;;;;;;;8.03;100.00;98112.22;1816302;79;21376;-61
2021/09/24 02:34:09;;;;;;;16.50;10.15;;;;;;;8.04;100.00;98106.61;1816577;78;20928;-61
2021/09/24 02:36:37;;;;;;;19.10;12.23;;;;;;;8.04;100.00;98097.80;1816071;78;20983;-61
2021/09/24 02:39:05;;;;;;;23.00;13.85;;;;;;;8.01;100.00;98081.78;1817679;78;21127;-62
2021/09/24 02:41:32;;;;;;;22.50;13.25;;;;;;;8.01;100.00;98083.12;1822291;78;20833;-61
2021/09/24 02:43:59;;;;;;;19.73;13.88;;;;;;;8.00;100.00;98076.70;1822040;78;20889;-61
2021/09/24 02:46:25;;;;;;;22.07;13.75;;;;;;;8.00;100.00;98060.67;1822103;78;20849;-61
2021/09/24 02:48:54;;;;;;;15.50;10.50;;;;;;;7.96;100.00;98060.39;1822323;78;20845;-61
2021/09/24 02:51:20;;;;;;;21.10;11.48;;;;;;;7.95;100.00;98054.80;1822149;78;21387;-62
2021/09/24 02:53:48;;;;;;;20.12;12.47;;;;;;;7.97;100.00;98036.63;1822508;78;20952;-62
2021/09/24 02:56:15;;;;;;;19.48;13.72;;;;;;;7.97;100.00;98039.30;1822181;78;20850;-62
2021/09/24 02:58:41;;;;;;;11.48;8.35;;;;;;;7.96;100.00;98028.34;1821976;78;20980;-62
2021/09/24 03:01:10;;;;;;;13.98;8.63;;;;;;;7.90;100.00;98021.43;1797692;78;20944;-62
2021/09/24 03:03:37;;;;;;;19.90;13.85;;;;;;;7.95;100.00;98016.06;1822263;78;21103;-63
2021/09/24 03:06:03;;;;;;;19.77;13.10;;;;;;;7.96;100.00;98008.30;1822067;78;20870;-62
2021/09/24 03:08:32;;;;;;;18.23;9.35;;;;;;;7.92;100.00;98004.05;1822287;78;20802;-61
2021/09/24 03:10:59;;;;;;;22.75;14.83;;;;;;;7.92;100.00;97994.70;1822224;78;20889;-62
2021/09/24 03:13:25;;;;;;;22.70;14.10;;;;;;;7.95;100.00;97992.02;1822417;78;20983;-62
2021/09/24 03:15:54;;;;;;;23.18;15.35;;;;;;;7.92;100.00;97972.00;1822213;78;21071;-62
2021/09/24 03:18:21;;;;;;;16.95;10.15;;;;;;;7.92;100.00;97980.01;1822446;78;20869;-61
2021/09/24 03:20:50;;;;;;;16.95;11.05;;;;;;;7.90;100.00;97978.14;1822169;78;20846;-61
2021/09/24 03:23:18;;;;;;;17.57;11.68;;;;;;;7.90;100.00;97959.45;1822350;78;20980;-61
2021/09/24 03:25:48;;;;;;;27.62;12.63;;;;;;;7.93;100.00;97946.07;1822251;78;20936;-61
2021/09/24 03:28:15;;;;;;;16.32;10.43;;;;;;;7.91;100.00;97918.83;1821835;78;21077;-61
2021/09/24 03:30:43;;;;;;;15.53;9.70;;;;;;;7.92;100.00;97913.77;1822310;78;20830;-62
2021/09/24 03:33:09;;;;;;;20.30;14.25;;;;;;;7.93;100.00;97906.00;1822325;78;20857;-62
2021/09/24 03:35:36;;;;;;;17.82;12.68;;;;;;;7.97;100.00;97932.44;1822254;78;20936;-61
2021/09/24 03:38:03;;;;;;;15.53;9.55;;;;;;;7.94;100.00;97916.97;1822347;78;20826;-61
2021/09/24 03:40:29;;;;;;;17.15;10.58;;;;;;;7.95;100.00;97923.89;1822353;78;21383;-61
2021/09/24 03:42:58;;;;;;;22.60;13.40;;;;;;;7.98;100.00;97915.86;1822293;78;20977;-62
2021/09/24 03:45:25;;;;;;;16.07;12.18;;;;;;;7.98;100.00;97923.88;1822565;78;20912;-60
2021/09/24 03:47:53;;;;;;;;;;;;;;;7.97;100.00;97930.30;1824961;78;20873;-61
2021/09/24 03:50:20;;;;;;;13.60;8.70;;;;;;;7.97;100.00;97883.55;1797086;78;20403;-61
2021/09/24 03:52:46;;;;;;;18.23;11.85;;;;;;;7.95;100.00;97892.63;1822398;78;21118;-61
2021/09/24 03:55:14;;;;;;;10.82;8.10;;;;;;;7.99;100.00;97900.11;1822593;78;21348;-61
2021/09/24 03:57:43;;;;;;;19.35;9.88;;;;;;;7.99;100.00;97902.78;1822422;78;25608;-62
2021/09/24 04:00:12;;;;;;;18.55;11.35;;;;;;;7.99;100.00;97878.19;1822147;78;20960;-62
2021/09/24 04:02:40;;;;;;;18.85;10.13;;;;;;;8.01;100.00;97864.53;1822208;78;20905;-60
2021/09/24 04:05:07;;;;;;;15.72;10.90;;;;;;;8.00;100.00;97855.73;1822222;78;21117;-61
2021/09/24 04:07:34;;;;;;;12.90;9.23;;;;;;;8.01;100.00;97847.98;1822318;78;20834;-61
2021/09/24 04:10:03;;;;;;;19.50;12.98;;;;;;;8.00;100.00;97849.59;1822560;78;21345;-61
2021/09/24 04:12:30;;;;;;;18.60;14.13;;;;;;;8.02;100.00;97834.09;1822526;78;20885;-61
2021/09/24 04:14:58;;;;;;;18.65;13.43;;;;;;;8.07;100.00;97833.50;1822325;78;20900;-61
2021/09/24 04:17:25;;;;;;;22.00;9.90;;;;;;;8.07;100.00;97832.16;1822560;78;21107;-61
2021/09/24 04:19:51;;;;;;;12.85;7.85;;;;;;;8.04;100.00;97827.93;1822318;78;20830;-63
2021/09/24 04:22:18;;;;;;;16.07;9.85;;;;;;;8.07;100.00;97812.13;1822243;78;20923;-59
2021/09/24 04:24:45;;;;;;;11.85;8.33;;;;;;;8.07;100.00;97792.08;1822130;78;20869;-61
2021/09/24 04:27:11;;;;;;;13.43;9.10;;;;;;;8.14;100.00;97801.91;1822199;78;21087;-62
2021/09/24 04:29:39;;;;;;;10.50;8.08;;;;;;;8.15;100.00;97796.02;1822423;78;20937;-63
2021/09/24 04:32:07;;;;;;;15.60;9.65;;;;;;;8.18;100.00;97785.30;1822192;78;20960;-61
2021/09/24 04:34:34;;;;;;;18.25;13.13;;;;;;;8.20;100.00;97798.65;1822351;78;20798;-60
2021/09/24 04:37:01;;;;;;;17.75;11.30;;;;;;;8.26;100.00;97788.18;1822147;78;20830;-61
2021/09/24 04:39:27;;;;;;;15.00;11.97;;;;;;;8.25;100.00;97785.78;1824502;78;21334;-61
2021/09/24 04:41:54;;;;;;;17.25;12.63;;;;;;;8.28;100.00;97781.20;1837507;78;21066;-61
2021/09/24 04:44:21;;;;;;;14.33;9.98;;;;;;;8.31;100.00;97791.35;1837618;78;20868;-60
2021/09/24 04:46:48;;;;;;;69.25;30.17;;;;;;;8.28;100.00;97784.70;1837694;78;20928;-62
2021/09/24 04:49:14;;;;;;;13.22;8.83;;;;;;;8.32;100.00;97773.67;1837652;78;20888;-59
2021/09/24 04:51:41;;;;;;;18.62;11.78;;;;;;;8.27;100.00;97763.03;1837859;78;20883;-58
2021/09/24 04:54:08;;;;;;;16.77;11.70;;;;;;;8.31;100.00;97776.65;1837853;78;21722;-60
2021/09/24 04:56:35;;;;;;;17.67;12.47;;;;;;;8.31;100.00;97757.94;1837662;78;20849;-60
2021/09/24 04:59:02;;;;;;;16.70;10.85;;;;;;;8.37;100.00;97760.80;1832018;76;20968;-60
2021/09/24 05:01:30;;;;;;;18.95;12.95;;;;;;;8.35;100.00;97757.09;1852348;76;21372;-60
2021/09/24 05:03:57;;;;;;;14.43;10.32;;;;;;;8.37;100.00;97762.92;1862116;76;21496;-59
2021/09/24 05:06:24;;;;;;;17.30;13.00;;;;;;;8.36;100.00;97754.66;1870759;76;21099;-60
2021/09/24 05:08:52;;;;;;;20.02;13.05;;;;;;;8.41;100.00;97759.74;1855565;76;21330;-63
2021/09/24 05:11:18;;;;;;;23.40;14.33;;;;;;;8.41;100.00;97759.20;1860149;76;21015;-59
2021/09/24 05:13:45;;;;;;;45.98;22.35;;;;;;;8.45;100.00;97746.86;1837461;76;20894;-59
2021/09/24 05:16:12;;;;;;;17.17;11.05;;;;;;;8.46;100.00;97712.90;1799576;79;20970;-60
2021/09/24 05:18:39;;;;;;;15.23;9.40;;;;;;;8.49;100.00;97717.67;1801136;79;21117;-58
2021/09/24 05:21:06;;;;;;;20.55;10.70;;;;;;;8.46;100.00;97728.39;1769593;79;20951;-60
2021/09/24 05:23:34;;;;;;;15.98;13.25;;;;;;;8.53;100.00;97724.84;1807380;78;21380;-60
2021/09/24 05:26:02;;;;;;;14.40;10.78;;;;;;;8.62;100.00;97734.35;1827487;78;21423;-60
2021/09/24 05:28:32;;;;;;;19.52;11.97;;;;;;;8.60;100.00;97728.52;1796190;78;27205;-60
2021/09/24 05:30:59;;;;;;;37.98;19.07;;;;;;;8.63;100.00;97726.60;1765289;78;21180;-63
2021/09/24 05:33:26;;;;;;;15.75;12.15;;;;;;;8.65;100.00;97725.78;1798998;79;20944;-60
2021/09/24 05:35:54;;;;;;;15.13;10.93;;;;;;;8.65;100.00;97703.56;1800713;79;20980;-60
2021/09/24 05:38:20;;;;;;;14.85;11.00;;;;;;;8.67;100.00;97718.27;1778129;79;20940;-60
2021/09/24 05:40:48;;;;;;;12.60;9.08;;;;;;;8.75;100.00;97716.84;1787988;78;21386;-60
2021/09/24 05:43:15;;;;;;;15.58;11.80;;;;;;;8.76;100.00;97689.78;1768510;81;21793;-62
2021/09/24 05:45:42;;;;;;;13.75;11.10;;;;;;;8.80;100.00;97714.89;1768562;81;21391;-61
2021/09/24 05:48:08;;;;;;;12.90;8.78;;;;;;;8.79;100.00;97719.17;1767117;81;20998;-60
2021/09/24 05:50:35;;;;;;;14.35;9.43;;;;;;;8.80;100.00;97669.41;1747330;81;21016;-61
2021/09/24 05:53:02;;;;;;;16.02;12.15;;;;;;;8.78;100.00;97703.67;1749628;82;20951;-62
2021/09/24 05:55:31;;;;;;;15.28;11.00;;;;;;;8.84;100.00;97690.23;1749730;81;20927;-62
2021/09/24 05:57:57;;;;;;;13.18;10.78;;;;;;;8.82;100.00;97693.21;1749664;81;20901;-60
2021/09/24 06:00:24;;;;;;;19.82;8.28;;;;;;;8.80;100.00;97685.47;1760984;80;20917;-61
2021/09/24 06:02:51;;;;;;;15.83;10.95;;;;;;;8.84;100.00;97668.83;1798692;79;20948;-63
2021/09/24 06:05:18;;;;;;;14.50;10.23;;;;;;;8.86;100.00;97684.84;1798419;79;20908;-62
2021/09/24 06:07:46;;;;;;;14.83;10.43;;;;;;;8.88;100.00;97698.73;1798906;79;20963;-62
2021/09/24 06:10:16;;;;;;;13.40;10.78;;;;;;;8.90;100.00;97695.78;1798373;79;21303;-62
2021/09/24 06:12:45;;;;;;;14.38;9.88;;;;;;;8.86;100.00;97688.86;1798864;79;20904;-63
2021/09/24 06:15:13;;;;;;;17.05;9.38;;;;;;;8.89;100.00;97690.98;1798974;79;20864;-61
2021/09/24 06:17:41;;;;;;;16.05;10.03;;;;;;;8.86;100.00;97688.86;1765849;79;20880;-63
2021/09/24 06:20:10;;;;;;;14.30;9.25;;;;;;;8.88;100.00;97681.34;1798671;79;21126;-62
2021/09/24 06:22:40;;;;;;;18.25;12.20;;;;;;;8.86;100.00;97680.83;1798249;79;20939;-63
2021/09/24 06:25:08;;;;;;;16.33;10.53;;;;;;;8.96;100.00;97688.72;1798742;79;21039;-64
2021/09/24 06:27:36;;;;;;;19.73;13.05;;;;;;;8.93;100.00;97685.84;1798828;79;21272;-61
2021/09/24 06:30:07;;;;;;;21.70;13.60;;;;;;;8.96;100.00;97671.33;1798891;79;20914;-61
2021/09/24 06:32:33;;;;;;;16.93;11.50;;;;;;;8.98;100.00;97681.75;1798051;79;21873;-60
2021/09/24 06:35:01;;;;;;;15.63;11.43;;;;;;;8.95;100.00;97693.03;1798944;79;20960;-60
2021/09/24 06:37:27;;;;;;;17.95;10.03;;;;;;;8.99;100.00;97684.66;1798907;79;20908;-60
2021/09/24 06:39:54;;;;;;;16.73;12.05;;;;;;;8.97;100.00;97672.94;1799901;78;20899;-61
2021/09/24 06:42:22;;;;;;;18.62;13.35;;;;;;;9.02;100.00;97692.14;1822202;78;20932;-59
2021/09/24 06:44:48;;;;;;;19.73;12.75;;;;;;;9.04;100.00;97677.11;1822092;78;21189;-60
2021/09/24 06:47:18;;;;;;;14.40;10.48;;;;;;;9.04;100.00;97693.98;1822153;78;21485;-59
2021/09/24 06:49:45;;;;;;;24.67;12.00;;;;;;;9.08;100.00;97650.03;1816084;78;20945;-60
2021/09/24 06:52:13;;;;;;;16.57;13.05;;;;;;;9.24;100.00;97695.58;1809424;78;21538;-61
2021/09/24 06:54:39;;;;;;;15.53;12.85;;;;;;;9.32;100.00;97688.22;1822297;78;20969;-61
2021/09/24 06:57:06;;;;;;;15.20;12.28;;;;;;;9.37;100.00;97688.14;1822346;78;21122;-61
2021/09/24 06:59:34;;;;;;;15.70;12.25;;;;;;;9.45;100.00;97700.86;1817317;78;21407;-61
2021/09/24 07:02:02;;;;;;;14.68;10.20;;;;;;;9.52;100.00;97683.09;1809583;79;20933;-60
2021/09/24 07:04:28;;;;;;;15.45;13.90;;;;;;;9.50;100.00;97675.88;1809300;78;21028;-61
2021/09/24 07:06:55;;;;;;;12.15;10.30;;;;;;;9.56;100.00;97673.39;1809526;78;20972;-61
2021/09/24 07:09:22;;;;;;;13.40;9.58;;;;;;;9.57;100.00;97676.31;1807994;78;21123;-62
2021/09/24 07:12:11;;;;;;;18.15;13.58;;;;;;;9.64;100.00;97678.07;1802990;79;20855;-61
2021/09/24 07:14:38;;;;;;;14.87;9.68;;;;;;;9.79;100.00;97679.70;1708378;83;21305;-61
2021/09/24 07:17:06;;;;;;;16.65;8.65;;;;;;;9.90;100.00;97664.77;1708388;83;20976;-63
2021/09/24 07:19:32;;;;;;;17.98;13.05;;;;;;;9.89;100.00;97689.44;1707890;83;20991;-63
2021/09/24 07:21:59;;;;;;;13.43;10.20;;;;;;;10.03;100.00;97683.57;1702579;84;21132;-61
2021/09/24 07:24:26;;;;;;;15.72;10.85;;;;;;;10.06;100.00;97678.95;1700926;84;20983;-64
2021/09/24 07:26:53;;;;;;;12.47;9.53;;;;;;;10.60;100.00;97673.94;1732856;81;20972;-64
2021/09/24 07:29:20;;;;;;;8.78;7.78;;;;;;;10.93;100.00;97673.80;1736267;81;20959;-64
2021/09/24 07:31:46;;;;;;;21.48;12.13;;;;;;;10.85;100.00;97682.02;1731584;82;21068;-63
2021/09/24 07:34:13;;;;;;;15.03;12.30;;;;;;;10.92;100.00;97672.98;1737953;82;21187;-63
2021/09/24 07:36:42;;;;;;;71.92;36.80;;;;;;;10.94;100.00;97694.95;1737231;81;21252;-65
2021/09/24 07:39:09;;;;;;;23.15;13.72;;;;;;;11.09;100.00;97688.46;1756529;79;20959;-65
2021/09/24 07:41:35;;;;;;;9.60;5.53;;;;;;;11.11;100.00;97692.20;1799687;79;20960;-64
2021/09/24 07:44:03;;;;;;;12.78;6.40;;;;;;;10.96;100.00;97658.98;1799775;79;20901;-63
2021/09/24 07:46:30;;;;;;;7.20;4.78;;;;;;;11.00;100.00;97689.48;1800147;79;21079;-61
2021/09/24 07:48:59;;;;;;;7.85;5.78;;;;;;;10.86;100.00;97694.34;1797415;79;20893;-62
2021/09/24 07:51:26;;;;;;;30.02;25.62;;;;;;;10.81;100.00;97693.66;1762023;81;20958;-63
2021/09/24 07:53:53;;;;;;;46.60;41.70;;;;;;;10.83;100.00;97690.13;1761599;80;20992;-64
2021/09/24 07:56:20;;;;;;;51.33;46.58;;;;;;;11.26;100.00;97695.09;1761997;80;20954;-63
2021/09/24 07:58:47;;;;;;;14.75;7.25;;;;;;;11.47;100.00;97692.74;1761970;80;21175;-65
2021/09/24 08:01:14;;;;;;;6.85;4.97;;;;;;;11.80;100.00;97691.37;1765546;79;20973;-62
2021/09/24 08:03:41;;;;;;;12.90;6.25;;;;;;;12.12;100.00;97697.59;1722213;81;20907;-64
2021/09/24 08:06:08;;;;;;;65.78;37.38;;;;;;;11.78;100.00;97693.59;1773018;80;20926;-64
2021/09/24 08:08:35;;;;;;;67.95;35.70;;;;;;;11.65;100.00;97706.53;1774678;79;20922;-65
2021/09/24 08:11:02;;;;;;;236.35;102.53;;;;;;;11.45;100.00;97717.77;1764388;81;21183;-65
2021/09/24 08:13:29;;;;;;;93.72;86.70;;;;;;;11.62;100.00;97719.24;1763386;79;20868;-63
2021/09/24 08:15:56;;;;;;;130.55;115.35;;;;;;;11.82;100.00;97723.33;1792024;79;20974;-63
2021/09/24 08:18:23;;;;;;;71.15;38.48;;;;;;;12.25;100.00;97724.70;1790547;78;21464;-64
2021/09/24 08:20:50;;;;;;;104.87;57.40;;;;;;;12.40;100.00;97724.31;1766060;80;20861;-63
2021/09/24 08:23:19;;;;;;;63.13;33.78;;;;;;;12.42;100.00;97719.39;1787767;80;20936;-64
2021/09/24 08:25:47;;;;;;;22.48;20.17;;;;;;;12.68;100.00;97730.83;1787670;80;21358;-63
2021/09/24 08:28:14;;;;;;;33.00;21.12;;;;;;;12.82;100.00;97720.73;1787769;80;20908;-62
2021/09/24 08:30:41;;;;;;;329.05;188.30;;;;;;;12.78;100.00;97730.53;1794747;79;21026;-62
2021/09/24 08:33:08;;;;;;;151.97;83.65;;;;;;;12.78;100.00;97731.88;1802918;79;20929;-61
2021/09/24 08:35:35;;;;;;;197.35;89.55;;;;;;;12.46;100.00;97727.66;1795345;79;21105;-61
2021/09/24 08:38:02;;;;;;;235.70;100.02;;;;;;;12.24;100.00;97736.02;1797385;78;20894;-61
2021/09/24 08:40:30;;;;;;;218.67;110.52;;;;;;;12.35;100.00;97731.97;1791167;78;20867;-62
2021/09/24 08:43:00;;;;;;;35.23;31.62;;;;;;;12.25;100.00;97734.11;1758612;81;21382;-60
2021/09/24 08:45:27;;;;;;;;;;;;;;;12.36;100.00;97745.66;1761344;81;21558;-61
2021/09/24 08:47:57;;;;;;;178.72;88.05;;;;;;;12.20;100.00;97725.09;1758919;81;21114;-63
2021/09/24 08:50:24;;;;;;;75.00;36.85;;;;;;;12.29;100.00;97740.48;1776587;80;20982;-62
2021/09/24 08:52:52;;;;;;;362.50;80.90;;;;;;;12.49;100.00;97749.91;1792458;80;21410;-64
2021/09/24 08:55:19;;;;;;;113.47;52.10;;;;;;;12.60;100.00;97753.36;1784844;80;20939;-63
2021/09/24 08:57:46;;;;;;;234.80;109.48;;;;;;;12.58;100.00;97739.41;1781913;80;21004;-63
2021/09/24 09:00:14;;;;;;;104.37;47.87;;;;;;;12.54;100.00;97748.42;1724273;83;21133;-60
2021/09/24 09:03:10;;;;;;;132.35;61.53;;;;;;;12.52;100.00;97756.00;1754036;80;20891;-62
2021/09/24 09:05:48;;;;;;;119.85;57.75;;;;;;;12.53;100.00;97753.02;1619815;88;21028;-60
2021/09/24 09:08:27;;;;;;;62.13;28.98;;;;;;;12.56;100.00;97750.25;1628560;85;21056;-60
2021/09/24 09:11:14;;;;;;;22.52;10.72;;;;;;;12.55;100.00;97760.78;1680323;84;21077;-60
2021/09/24 09:13:50;;;;;;;48.65;23.47;;;;;;;12.60;100.00;97755.27;1629881;85;21014;-60
2021/09/24 09:16:21;;;;;;;29.23;14.83;;;;;;;12.56;100.00;97742.96;1612784;86;21488;-61
2021/09/24 09:18:48;;;;;;;29.72;15.03;;;;;;;12.78;100.00;97752.08;1640941;86;21461;-61
2021/09/24 09:21:18;;;;;;;36.65;20.40;;;;;;;13.36;100.00;97755.01;1663491;85;21465;-60
2021/09/24 09:23:51;;;;;;;46.02;19.70;;;;;;;13.88;100.00;97750.95;1664101;86;21170;-60
2021/09/24 09:26:16;;;;;;;30.80;14.15;;;;;;;14.01;100.00;97772.11;1654576;85;21128;-60
2021/09/24 09:28:54;;;;;;;32.25;15.60;;;;;;;13.84;100.00;97781.57;1664220;86;21395;-59
2021/09/24 09:31:32;;;;;;;5.62;3.17;;;;;;;13.83;100.00;97784.04;1644047;85;21036;-59
2021/09/24 09:34:03;;;;;;;6.33;3.15;;;;;;;14.19;100.00;97765.36;1637516;85;20967;-60
2021/09/24 09:36:36;;;;;;;9.08;2.83;;;;;;;14.25;100.00;97774.86;1682382;83;20957;-61
2021/09/24 09:39:12;;;;;;;9.68;4.45;;;;;;;14.70;100.00;97779.82;1745570;81;21873;-60
2021/09/24 09:41:53;;;;;;;12.73;4.50;;;;;;;14.46;100.00;97777.11;1724076;81;20864;-60
2021/09/24 09:44:30;;;;;;;15.38;6.17;;;;;;;14.33;100.00;97778.90;1733619;81;21030;-60
2021/09/24 09:46:57;;;;;;;7.33;3.40;;;;;;;14.21;100.00;97776.07;1727469;81;21024;-60
2021/09/24 09:49:28;;;;;;;9.03;3.37;;;;;;;13.81;100.00;97773.56;1745131;81;21210;-60
2021/09/24 09:52:10;;;;;;;7.30;4.78;;;;;;;13.75;100.00;97780.23;1761777;78;21136;-59
2021/09/24 09:54:38;;;;;;;5.75;2.22;;;;;;;13.45;100.00;97789.50;1783011;78;20929;-59
2021/09/24 09:57:13;;;;;;;8.30;5.35;;;;;;;12.72;100.00;97793.71;1782779;78;20912;-61
2021/09/24 09:59:40;;;;;;;14.95;6.35;;;;;;;12.33;100.00;97793.91;1789841;78;20951;-61
2021/09/24 10:02:32;;;;;;;8.65;4.25;;;;;;;12.72;100.00;97799.09;1780147;78;20990;-60
2021/09/24 10:04:58;;;;;;;16.25;12.95;;;;;;;12.67;100.00;97775.80;1787629;78;21896;-61
2021/09/24 10:07:28;;;;;;;34.73;31.40;;;;;;;12.86;100.00;97795.72;1787924;78;20927;-60
2021/09/24 10:10:13;;;;;;;29.57;26.90;;;;;;;12.63;100.00;97815.98;1787108;78;20991;-62
2021/09/24 10:12:40;;;;;;;20.27;18.27;;;;;;;12.17;100.00;97788.11;1777716;78;21453;-59
2021/09/24 10:15:08;;;;;;;88.23;56.57;;;;;;;11.72;100.00;97821.13;1788829;78;20904;-59
2021/09/24 10:17:35;;;;;;;28.25;18.62;;;;;;;11.44;100.00;97817.72;1788346;78;21172;-62
2021/09/24 10:20:03;;;;;;;87.92;51.15;;;;;;;11.47;100.00;97814.42;1792528;78;20975;-60
2021/09/24 10:22:30;;;;;;;29.07;14.00;;;;;;;11.93;100.00;97815.30;1786755;78;20979;-60
2021/09/24 10:24:58;;;;;;;33.10;14.68;;;;;;;11.93;100.00;97801.86;1788755;80;20976;-61
2021/09/24 10:27:35;;;;;;;19.30;16.83;;;;;;;11.99;100.00;97796.06;1780043;80;20944;-60
2021/09/24 10:30:14;;;;;;;16.10;9.68;;;;;;;12.55;100.00;97779.62;1789100;78;27463;-61
2021/09/24 10:32:58;;;;;;;11.03;3.27;;;;;;;12.75;100.00;97774.23;1786468;78;21406;-60
2021/09/24 10:35:51;;;;;;;17.23;12.85;;;;;;;12.81;100.00;97818.75;1788834;78;21018;-60
2021/09/24 10:38:24;;;;;;;68.47;36.03;;;;;;;12.79;100.00;97816.95;1784928;78;21512;-61
2021/09/24 10:41:06;;;;;;;156.67;78.17;;;;;;;12.92;100.00;97828.16;1793012;78;21062;-61
2021/09/24 10:43:46;;;;;;;90.55;49.60;;;;;;;12.99;100.00;97815.03;1789251;78;21856;-59
2021/09/24 10:46:37;;;;;;;169.40;84.65;;;;;;;13.01;100.00;97834.38;1777810;78;20948;-60
2021/09/24 10:49:26;;;;;;;12.68;11.35;;;;;;;13.69;100.00;97809.80;1783549;80;20987;-60
2021/09/24 10:52:09;;;;;;;5.92;4.03;;;;;;;13.65;100.00;97841.22;1783975;78;21470;-59
2021/09/24 10:54:54;;;;;;;106.35;75.03;;;;;;;13.35;100.00;97834.80;1766877;80;20987;-61
2021/09/24 10:57:20;;;;;;;16.05;7.25;;;;;;;13.46;100.00;97848.23;1776231;80;22229;-60
2021/09/24 10:59:48;;;;;;;53.13;26.40;;;;;;;13.73;100.00;97835.03;1791836;78;25177;-60
2021/09/24 11:02:39;;;;;;;6.67;2.45;;;;;;;13.93;100.00;97843.05;1715842;81;21017;-59
2021/09/24 11:05:08;;;;;;;62.13;39.20;;;;;;;13.74;100.00;97839.30;1692357;83;20983;-61
2021/09/24 11:07:36;;;;;;;14.90;9.20;;;;;;;13.27;100.00;97848.50;1781821;78;20948;-60
2021/09/24 11:10:05;;;;;;;126.67;83.87;;;;;;;13.05;100.00;97841.27;1793834;78;21112;-60
2021/09/24 11:12:33;;;;;;;7.97;5.17;;;;;;;12.77;100.00;97846.86;1775776;78;21017;-60
2021/09/24 11:15:13;;;;;;;54.08;39.15;;;;;;;12.70;100.00;97842.47;1746081;80;21010;-60
2021/09/24 11:17:46;;;;;;;212.88;122.02;;;;;;;12.50;100.00;97838.41;1762480;81;21437;-59
2021/09/24 11:20:29;;;;;;;87.15;49.55;;;;;;;12.39;100.00;97827.64;1780021;78;20889;-59
2021/09/24 11:22:58;;;;;;;22.62;16.80;;;;;;;12.33;100.00;97842.34;1758051;78;20955;-58
2021/09/24 11:25:24;;;;;;;34.92;23.07;;;;;;;12.27;100.00;97838.95;1790986;78;21438;-59